Time;durP1;ratioP1;P1;durP2;ratioP2;P2;SDS_P1;SDS_P2;PMS_P1;PMS_P2;Temp;Humidity;BMP_temperature;BMP_pressure;BME280_temperature;BME280_humidity;BME280_pressure;Samples;Min_cycle;Max_cycle;Signal;HPM_P1;HPM_P2
2022/10/20 00:00:56;;;;;;;20.70;8.38;;;19.30;99.90;;;;;;5116152;28;20031;-80
2022/10/20 00:03:23;;;;;;;21.83;8.80;;;19.30;99.90;;;;;;5107666;28;20039;-80
2022/10/20 00:05:49;;;;;;;18.73;8.98;;;19.40;99.90;;;;;;5094805;28;20112;-80
2022/10/20 00:08:15;;;;;;;24.73;9.23;;;19.30;99.90;;;;;;5095226;28;20095;-80
2022/10/20 00:10:40;;;;;;;21.23;9.18;;;19.40;99.90;;;;;;5076899;28;20471;-80
2022/10/20 00:13:06;;;;;;;17.05;8.55;;;19.30;99.90;;;;;;5095021;28;20028;-80
2022/10/20 00:15:32;;;;;;;22.02;8.70;;;19.30;99.90;;;;;;5095495;28;20040;-81
2022/10/20 00:17:58;;;;;;;16.80;7.90;;;19.40;99.90;;;;;;5094939;28;20111;-80
2022/10/20 00:20:23;;;;;;;23.85;8.82;;;19.40;99.90;;;;;;5094690;28;20056;-80
2022/10/20 00:22:49;;;;;;;18.50;8.50;;;19.40;99.90;;;;;;5095045;28;20024;-80
2022/10/20 00:25:15;;;;;;;21.15;9.32;;;19.40;99.90;;;;;;5095277;28;20476;-80
2022/10/20 00:27:40;;;;;;;16.75;8.68;;;19.40;99.90;;;;;;5094711;28;20028;-80
2022/10/20 00:30:07;;;;;;;25.17;8.60;;;19.50;99.90;;;;;;5094790;28;20038;-80
2022/10/20 00:32:32;;;;;;;21.55;9.32;;;19.40;99.90;;;;;;5110966;28;20416;-80
2022/10/20 00:34:58;;;;;;;21.92;9.13;;;19.50;99.90;;;;;;5115128;28;20115;-80
2022/10/20 00:37:23;;;;;;;24.02;8.80;;;19.50;99.90;;;;;;5115000;28;20383;-80
2022/10/20 00:39:49;;;;;;;17.60;8.90;;;19.40;99.90;;;;;;5115087;28;20054;-80
2022/10/20 00:42:19;;;;;;;21.35;8.82;;;19.40;99.90;;;;;;5114883;28;20084;-80
2022/10/20 00:45:01;;;;;;;20.67;9.35;;;19.60;99.90;;;;;;5114878;28;20028;-80
2022/10/20 00:47:58;;;;;;;21.80;9.15;;;19.50;99.90;;;;;;5114900;28;20022;-80
2022/10/20 00:50:28;;;;;;;21.40;9.05;;;19.50;99.90;;;;;;5094454;28;20131;-80
2022/10/20 00:52:55;;;;;;;23.83;8.93;;;19.50;99.90;;;;;;5114646;28;20019;-80
2022/10/20 00:55:28;;;;;;;20.75;8.40;;;19.60;99.90;;;;;;5114975;28;20504;-80
2022/10/20 00:57:55;;;;;;;20.77;8.68;;;19.50;99.90;;;;;;5114933;28;20089;-80
2022/10/20 01:00:22;;;;;;;15.50;8.32;;;19.50;99.90;;;;;;5114510;28;20019;-80
2022/10/20 01:02:50;;;;;;;23.70;8.43;;;19.50;99.90;;;;;;5111294;28;20035;-80
2022/10/20 01:05:16;;;;;;;18.63;8.63;;;19.50;99.90;;;;;;5074908;28;20029;-80
2022/10/20 01:07:42;;;;;;;22.85;8.65;;;19.50;99.90;;;;;;5094102;28;20031;-80
2022/10/20 01:10:08;;;;;;;19.30;8.93;;;19.60;99.90;;;;;;5093975;28;20107;-80
2022/10/20 01:12:57;;;;;;;20.38;8.82;;;19.60;99.90;;;;;;5094326;28;20412;-80
2022/10/20 01:15:41;;;;;;;16.05;8.85;;;19.70;99.90;;;;;;5093800;28;20067;-80
2022/10/20 01:18:13;;;;;;;26.35;9.30;;;19.60;99.90;;;;;;5093446;28;20024;-80
2022/10/20 01:21:04;;;;;;;23.88;9.05;;;19.50;99.90;;;;;;5094365;28;20496;-80
2022/10/20 01:24:00;;;;;;;19.85;8.90;;;19.50;99.90;;;;;;5093773;28;20085;-80
2022/10/20 01:26:53;;;;;;;21.83;8.63;;;19.50;99.90;;;;;;5093603;28;20027;-80
2022/10/20 01:29:56;;;;;;;21.35;9.52;;;19.50;99.90;;;;;;5093773;28;20567;-80
2022/10/20 01:32:51;;;;;;;18.63;8.48;;;19.50;99.90;;;;;;5108199;28;20492;-80
2022/10/20 01:35:17;;;;;;;16.95;8.95;;;19.50;99.90;;;;;;5113808;28;20130;-80
2022/10/20 01:37:51;;;;;;;21.10;9.00;;;19.50;99.90;;;;;;5113811;28;20115;-80
2022/10/20 01:40:55;;;;;;;20.08;8.77;;;19.50;99.90;;;;;;5113639;28;20035;-80
2022/10/20 01:43:24;;;;;;;21.00;8.55;;;19.50;99.90;;;;;;5095754;28;20065;-80
2022/10/20 01:45:51;;;;;;;22.48;8.35;;;19.50;99.90;;;;;;5113669;28;20032;-80
2022/10/20 01:48:21;;;;;;;21.58;8.95;;;19.50;99.90;;;;;;5113305;28;20020;-80
2022/10/20 01:50:48;;;;;;;19.48;8.55;;;19.60;99.90;;;;;;5114120;28;20111;-80
2022/10/20 01:53:14;;;;;;;23.80;8.80;;;19.70;99.90;;;;;;5113429;28;20020;-80
2022/10/20 01:55:40;;;;;;;20.85;8.30;;;19.70;99.90;;;;;;5113287;28;20096;-80
2022/10/20 01:58:24;;;;;;;22.13;8.18;;;19.60;99.90;;;;;;5113938;28;20528;-80
2022/10/20 02:00:52;;;;;;;26.70;9.38;;;19.50;99.90;;;;;;5113091;28;20071;-80
2022/10/20 02:03:45;;;;;;;22.08;8.88;;;19.50;99.90;;;;;;5105743;28;20377;-80
2022/10/20 02:06:22;;;;;;;17.35;8.60;;;19.50;99.90;;;;;;5092893;28;20055;-80
2022/10/20 02:08:56;;;;;;;18.90;9.10;;;19.40;99.90;;;;;;5092882;28;20028;-80
2022/10/20 02:12:06;;;;;;;17.60;8.23;;;19.50;99.90;;;;;;5092649;28;20096;-80
2022/10/20 02:14:32;;;;;;;17.65;8.30;;;19.50;99.90;;;;;;5088528;28;20036;-80
2022/10/20 02:17:06;;;;;;;24.27;8.85;;;19.40;99.90;;;;;;5091713;28;20028;-80
2022/10/20 02:19:39;;;;;;;21.67;8.85;;;19.40;99.90;;;;;;5092821;28;20039;-80
2022/10/20 02:22:07;;;;;;;24.65;9.00;;;19.40;99.90;;;;;;5092784;28;20081;-80
2022/10/20 02:24:36;;;;;;;22.13;8.40;;;19.40;99.90;;;;;;5092579;28;20042;-80
2022/10/20 02:27:09;;;;;;;18.83;8.98;;;19.50;99.90;;;;;;5092928;28;20099;-80
2022/10/20 02:29:43;;;;;;;14.60;8.40;;;19.60;99.90;;;;;;5092624;28;20020;-80
2022/10/20 02:32:10;;;;;;;20.00;9.48;;;19.60;99.90;;;;;;5105309;28;20031;-80
2022/10/20 02:34:36;;;;;;;17.25;9.02;;;19.80;99.90;;;;;;5112859;28;20093;-80
2022/10/20 02:37:02;;;;;;;21.42;9.07;;;19.70;99.90;;;;;;5112752;28;20380;-80
2022/10/20 02:39:27;;;;;;;19.95;9.15;;;19.70;99.90;;;;;;5112828;28;20027;-80
2022/10/20 02:41:53;;;;;;;17.48;8.18;;;19.70;99.90;;;;;;5113508;28;20024;-80
2022/10/20 02:44:19;;;;;;;20.02;8.60;;;19.70;99.90;;;;;;5112592;28;20039;-80
2022/10/20 02:46:45;;;;;;;18.70;9.52;;;19.70;99.90;;;;;;5112424;28;20023;-80
2022/10/20 02:49:10;;;;;;;21.67;9.05;;;19.60;99.90;;;;;;5113023;28;20035;-80
2022/10/20 02:51:36;;;;;;;21.05;8.85;;;19.60;99.90;;;;;;5112557;28;20028;-80
2022/10/20 02:54:02;;;;;;;20.27;9.90;;;19.60;99.90;;;;;;5112568;28;20548;-79
2022/10/20 02:56:27;;;;;;;27.20;9.98;;;19.60;99.90;;;;;;5112650;28;20027;-80
2022/10/20 02:58:53;;;;;;;21.92;9.40;;;19.60;99.90;;;;;;5113013;28;20429;-80
2022/10/20 03:01:19;;;;;;;18.98;10.15;;;19.60;99.90;;;;;;5112232;28;20081;-80
2022/10/20 03:03:44;;;;;;;22.92;9.88;;;19.50;99.90;;;;;;5101148;28;20020;-80
2022/10/20 03:06:14;;;;;;;17.98;9.30;;;19.50;99.90;;;;;;5091999;28;20036;-80
2022/10/20 03:08:40;;;;;;;24.08;10.50;;;19.50;99.90;;;;;;5092533;28;20028;-80
2022/10/20 03:11:06;;;;;;;21.80;10.50;;;19.50;99.90;;;;;;5091841;28;20538;-80
2022/10/20 03:13:32;;;;;;;25.80;11.23;;;19.50;99.90;;;;;;5092144;28;20036;-80
2022/10/20 03:15:58;;;;;;;21.80;10.63;;;19.60;99.90;;;;;;5073529;28;20085;-80
2022/10/20 03:18:23;;;;;;;26.65;11.23;;;19.60;99.90;;;;;;5091973;28;20024;-80
2022/10/20 03:20:50;;;;;;;28.35;11.20;;;19.60;99.90;;;;;;5092357;28;20093;-79
2022/10/20 03:23:16;;;;;;;21.48;10.45;;;19.60;99.90;;;;;;5091911;28;20035;-80
2022/10/20 03:25:42;;;;;;;22.95;10.98;;;19.50;99.90;;;;;;5092179;28;20024;-80
2022/10/20 03:28:08;;;;;;;21.63;11.30;;;19.60;99.90;;;;;;5093383;28;20028;-80
2022/10/20 03:30:33;;;;;;;22.95;10.93;;;19.50;99.90;;;;;;5095996;28;20089;-80
2022/10/20 03:32:59;;;;;;;25.13;12.30;;;19.40;99.90;;;;;;5116139;28;20031;-80
2022/10/20 03:35:25;;;;;;;27.75;11.13;;;19.40;99.90;;;;;;5116118;28;20361;-80
2022/10/20 03:37:50;;;;;;;24.55;11.75;;;19.70;99.90;;;;;;5116283;28;20099;-80
2022/10/20 03:40:16;;;;;;;29.52;11.55;;;19.40;99.90;;;;;;5116115;28;20023;-80
2022/10/20 03:42:42;;;;;;;25.10;11.65;;;19.40;99.90;;;;;;5115812;28;20386;-80
2022/10/20 03:45:07;;;;;;;24.95;12.00;;;19.40;99.90;;;;;;5116036;28;20036;-80
2022/10/20 03:47:33;;;;;;;27.05;11.07;;;19.40;99.90;;;;;;5115937;28;20039;-80
2022/10/20 03:49:59;;;;;;;23.73;10.85;;;19.50;99.90;;;;;;5116350;28;20499;-80
2022/10/20 03:52:24;;;;;;;23.85;10.85;;;19.50;99.90;;;;;;5115997;28;20012;-80
2022/10/20 03:54:50;;;;;;;30.45;11.13;;;19.40;99.90;;;;;;5115739;28;20126;-80
2022/10/20 03:57:15;;;;;;;22.10;11.15;;;19.40;99.90;;;;;;5115653;28;20079;-80
2022/10/20 03:59:41;;;;;;;23.30;10.75;;;19.50;99.90;;;;;;5116024;28;20023;-80
2022/10/20 04:02:06;;;;;;;24.45;10.90;;;19.50;99.90;;;;;;5115947;28;20020;-80
2022/10/20 04:04:32;;;;;;;19.20;10.90;;;19.50;99.90;;;;;;5097597;28;20161;-79
2022/10/20 04:06:58;;;;;;;25.15;11.40;;;19.50;99.90;;;;;;5095235;28;20032;-79
2022/10/20 04:09:23;;;;;;;22.05;11.10;;;19.50;99.90;;;;;;5095867;28;20032;-79
2022/10/20 04:11:49;;;;;;;22.42;10.68;;;19.50;99.90;;;;;;5076679;28;20117;-79
2022/10/20 04:14:14;;;;;;;21.92;10.07;;;19.60;99.90;;;;;;5094995;28;20044;-79
2022/10/20 04:16:40;;;;;;;25.73;11.07;;;19.60;99.90;;;;;;5095454;28;20028;-79
2022/10/20 04:19:06;;;;;;;21.50;11.18;;;19.50;99.90;;;;;;5094750;28;20020;-79
2022/10/20 04:21:32;;;;;;;26.27;11.07;;;19.50;99.90;;;;;;5095099;28;20032;-79
2022/10/20 04:23:57;;;;;;;27.08;11.07;;;19.50;99.90;;;;;;5094974;28;20020;-80
2022/10/20 04:26:23;;;;;;;23.33;10.93;;;19.60;99.90;;;;;;5094465;28;20032;-79
2022/10/20 04:28:49;;;;;;;22.70;10.80;;;19.60;99.90;;;;;;5094950;28;20468;-79
2022/10/20 04:31:14;;;;;;;19.63;10.73;;;19.60;99.90;;;;;;5100493;28;20706;-79
2022/10/20 04:33:40;;;;;;;24.88;11.65;;;19.50;99.90;;;;;;5114952;28;20024;-79
2022/10/20 04:36:09;;;;;;;28.40;11.27;;;19.60;99.90;;;;;;5115059;28;20034;-79
2022/10/20 04:38:35;;;;;;;22.25;11.63;;;19.50;99.90;;;;;;5114611;28;20032;-79
2022/10/20 04:41:05;;;;;;;25.67;10.95;;;19.70;99.90;;;;;;5113993;28;20398;-79
2022/10/20 04:43:33;;;;;;;23.63;10.95;;;19.60;99.90;;;;;;5114954;28;20030;-79
2022/10/20 04:46:04;;;;;;;24.67;11.50;;;19.60;99.90;;;;;;5115160;28;20028;-78
2022/10/20 04:48:29;;;;;;;22.95;11.18;;;19.50;99.90;;;;;;5114693;28;20107;-80
2022/10/20 04:51:07;;;;;;;27.40;11.35;;;19.40;99.90;;;;;;5114837;28;20103;-80
2022/10/20 04:53:33;;;;;;;23.52;11.27;;;19.60;99.90;;;;;;5114735;28;20023;-79
2022/10/20 04:55:59;;;;;;;25.17;11.88;;;19.70;99.90;;;;;;5114222;28;20032;-79
2022/10/20 04:58:25;;;;;;;24.42;10.93;;;19.40;99.90;;;;;;5115071;28;20069;-79
2022/10/20 05:00:51;;;;;;;23.70;11.93;;;19.50;99.90;;;;;;5114522;28;20360;-79
2022/10/20 05:03:18;;;;;;;24.45;11.60;;;19.20;99.90;;;;;;5107018;28;20081;-80
2022/10/20 05:05:44;;;;;;;20.40;11.18;;;19.50;99.90;;;;;;5094410;28;20024;-80
2022/10/20 05:08:10;;;;;;;24.35;11.18;;;19.50;99.90;;;;;;5093998;28;20031;-79
2022/10/20 05:10:35;;;;;;;22.25;11.10;;;19.20;99.90;;;;;;5093461;28;20024;-79
2022/10/20 05:13:01;;;;;;;20.67;10.80;;;19.20;99.90;;;;;;5093959;28;20060;-80
2022/10/20 05:15:26;;;;;;;24.25;12.43;;;19.20;99.90;;;;;;5093952;28;20044;-80
2022/10/20 05:17:52;;;;;;;18.00;11.82;;;19.20;99.90;;;;;;5093675;28;20081;-80
2022/10/20 05:20:17;;;;;;;18.63;11.02;;;19.10;99.90;;;;;;5094198;28;20107;-79
2022/10/20 05:22:43;;;;;;;21.75;11.40;;;19.00;99.90;;;;;;5075814;28;20012;-79
2022/10/20 05:25:08;;;;;;;19.95;11.07;;;19.00;99.90;;;;;;5093363;28;20446;-80
2022/10/20 05:27:34;;;;;;;22.20;12.05;;;19.00;99.90;;;;;;5093726;28;20058;-80
2022/10/20 05:30:01;;;;;;;20.05;11.20;;;19.00;99.90;;;;;;5093607;28;20039;-80
2022/10/20 05:32:28;;;;;;;23.63;11.98;;;19.00;99.90;;;;;;5109051;28;20043;-79
2022/10/20 05:34:54;;;;;;;23.20;12.20;;;19.00;99.90;;;;;;5113751;28;20071;-80
2022/10/20 05:37:19;;;;;;;24.40;12.02;;;19.00;99.90;;;;;;5114105;28;20473;-79
2022/10/20 05:39:45;;;;;;;26.38;12.55;;;19.00;99.90;;;;;;5113318;28;20067;-80
2022/10/20 05:42:11;;;;;;;18.73;11.88;;;18.90;99.90;;;;;;5114115;28;20058;-79
2022/10/20 05:44:37;;;;;;;23.70;12.00;;;18.90;99.90;;;;;;5113682;28;20038;-79
2022/10/20 05:47:02;;;;;;;31.15;12.75;;;18.90;99.90;;;;;;5113235;28;20062;-80
2022/10/20 05:49:28;;;;;;;23.40;12.48;;;18.90;99.90;;;;;;5113871;28;20465;-79
2022/10/20 05:51:54;;;;;;;21.30;12.27;;;18.90;99.90;;;;;;5113205;28;20472;-79
2022/10/20 05:54:19;;;;;;;23.73;12.48;;;19.00;99.90;;;;;;5113025;28;20039;-79
2022/10/20 05:56:45;;;;;;;28.35;13.20;;;18.90;99.90;;;;;;5113373;28;20100;-79
2022/10/20 05:59:11;;;;;;;22.88;12.57;;;18.90;99.90;;;;;;5113425;28;20059;-79
2022/10/20 06:01:46;;;;;;;26.25;12.73;;;18.90;99.90;;;;;;5113242;28;20110;-79
2022/10/20 06:04:15;;;;;;;23.77;12.60;;;18.90;99.90;;;;;;5098365;28;20484;-79
2022/10/20 06:06:40;;;;;;;25.80;12.90;;;18.90;99.90;;;;;;5093116;28;20048;-79
2022/10/20 06:09:07;;;;;;;28.23;13.00;;;18.90;99.90;;;;;;5092746;28;20276;-79
2022/10/20 06:11:33;;;;;;;23.73;12.50;;;19.30;99.90;;;;;;5092585;28;20055;-79
2022/10/20 06:13:59;;;;;;;22.38;12.93;;;19.00;99.90;;;;;;5092983;28;20038;-79
2022/10/20 06:16:25;;;;;;;24.27;13.55;;;19.00;99.90;;;;;;5093673;28;20028;-79
2022/10/20 06:18:51;;;;;;;26.50;13.32;;;19.00;99.90;;;;;;5092852;28;20035;-79
2022/10/20 06:21:23;;;;;;;22.80;12.35;;;18.90;99.90;;;;;;5093157;28;20082;-79
2022/10/20 06:23:49;;;;;;;24.98;13.38;;;19.00;99.90;;;;;;5092300;28;20028;-79
2022/10/20 06:26:28;;;;;;;27.38;13.75;;;19.00;99.90;;;;;;5092587;28;20024;-79
2022/10/20 06:28:55;;;;;;;25.58;13.32;;;19.10;99.90;;;;;;5092543;28;20065;-79
2022/10/20 06:31:22;;;;;;;24.48;13.63;;;19.40;99.90;;;;;;5105737;28;20031;-79
2022/10/20 06:33:48;;;;;;;24.85;13.20;;;19.30;99.90;;;;;;5111575;28;20031;-80
2022/10/20 06:36:14;;;;;;;27.60;13.15;;;19.00;99.90;;;;;;5112244;28;20110;-80
2022/10/20 06:38:41;;;;;;;25.92;13.40;;;19.00;99.90;;;;;;5112817;28;20019;-79
2022/10/20 06:41:14;;;;;;;26.60;13.70;;;18.90;99.90;;;;;;5094512;28;20058;-79
2022/10/20 06:43:40;;;;;;;25.83;14.32;;;19.00;99.90;;;;;;5112613;28;20016;-79
2022/10/20 06:46:09;;;;;;;25.88;13.85;;;18.80;99.90;;;;;;5112950;28;20391;-79
2022/10/20 06:48:35;;;;;;;24.63;14.02;;;18.80;99.90;;;;;;5112826;28;20086;-80
2022/10/20 06:51:04;;;;;;;26.17;14.38;;;18.90;99.90;;;;;;5112594;28;20032;-79
2022/10/20 06:53:30;;;;;;;19.48;13.55;;;18.90;99.90;;;;;;5112405;28;20102;-79
2022/10/20 06:55:57;;;;;;;21.40;13.73;;;18.90;99.90;;;;;;5112411;28;20502;-80
2022/10/20 06:58:23;;;;;;;29.70;13.82;;;19.30;99.90;;;;;;5112259;28;20384;-79
2022/10/20 07:01:00;;;;;;;25.92;13.68;;;19.00;99.90;;;;;;5112981;28;20023;-79
2022/10/20 07:03:27;;;;;;;19.05;13.30;;;18.90;99.90;;;;;;5109144;28;20020;-79
2022/10/20 07:05:52;;;;;;;22.42;13.27;;;18.90;99.90;;;;;;5098528;28;20016;-79
2022/10/20 07:08:18;;;;;;;25.80;13.82;;;19.00;99.90;;;;;;5098779;28;20039;-79
2022/10/20 07:10:43;;;;;;;26.08;14.23;;;18.90;99.90;;;;;;5098762;28;20082;-79
2022/10/20 07:13:09;;;;;;;19.90;13.30;;;19.00;99.90;;;;;;5080855;28;20035;-79
2022/10/20 07:15:35;;;;;;;28.98;13.02;;;18.90;99.90;;;;;;5098492;28;20028;-79
2022/10/20 07:18:00;;;;;;;24.48;13.30;;;18.80;99.90;;;;;;5098762;28;20039;-79
2022/10/20 07:20:26;;;;;;;26.77;12.48;;;18.80;99.90;;;;;;5098566;28;20112;-79
2022/10/20 07:22:51;;;;;;;22.35;12.63;;;18.70;99.90;;;;;;5099116;28;20034;-79
2022/10/20 07:25:20;;;;;;;26.55;12.95;;;18.70;99.90;;;;;;5098711;28;20059;-80
2022/10/20 07:27:46;;;;;;;24.73;13.57;;;18.80;99.90;;;;;;5098780;28;20024;-79
2022/10/20 07:30:12;;;;;;;22.85;13.05;;;18.70;99.90;;;;;;5098522;28;20039;-80
2022/10/20 07:32:38;;;;;;;24.92;13.05;;;18.70;99.90;;;;;;5115997;28;20030;-79
2022/10/20 07:35:04;;;;;;;23.33;12.23;;;18.60;99.90;;;;;;5120225;28;20028;-80
2022/10/20 07:37:29;;;;;;;21.63;12.25;;;18.70;99.90;;;;;;5119400;28;20020;-79
2022/10/20 07:39:55;;;;;;;20.85;12.15;;;18.70;99.90;;;;;;5119064;28;20444;-79
2022/10/20 07:42:21;;;;;;;20.95;12.88;;;18.60;99.90;;;;;;5119093;28;20105;-79
2022/10/20 07:44:46;;;;;;;21.38;12.65;;;18.60;99.90;;;;;;5119109;28;20131;-79
2022/10/20 07:47:12;;;;;;;24.75;13.10;;;18.60;99.90;;;;;;5118917;28;20080;-79
2022/10/20 07:49:37;;;;;;;22.77;12.32;;;18.60;99.90;;;;;;5118702;28;20024;-79
2022/10/20 07:52:03;;;;;;;19.42;11.27;;;18.60;99.90;;;;;;5119446;28;20030;-80
2022/10/20 07:54:30;;;;;;;18.23;10.90;;;18.60;99.90;;;;;;5118309;28;20391;-79
2022/10/20 07:56:56;;;;;;;22.02;11.75;;;18.60;99.90;;;;;;5119048;28;20039;-80
2022/10/20 07:59:21;;;;;;;25.50;10.73;;;18.60;99.90;;;;;;5119057;28;20371;-79
2022/10/20 08:01:47;;;;;;;23.63;11.70;;;18.60;99.90;;;;;;5118947;28;20364;-78
2022/10/20 08:04:13;;;;;;;25.73;10.90;;;18.70;99.90;;;;;;5103234;28;20034;-79
2022/10/20 08:06:38;;;;;;;21.17;10.27;;;18.70;99.90;;;;;;5098622;28;20042;-79
2022/10/20 08:09:04;;;;;;;23.02;10.43;;;18.70;99.90;;;;;;5098312;28;20024;-79
2022/10/20 08:11:30;;;;;;;18.98;10.57;;;18.70;99.90;;;;;;5098884;28;20071;-79
2022/10/20 08:13:55;;;;;;;19.98;10.57;;;18.70;99.90;;;;;;5097098;28;20471;-79
2022/10/20 08:16:21;;;;;;;20.38;10.75;;;18.90;99.90;;;;;;5095075;28;20093;-79
2022/10/20 08:18:47;;;;;;;27.27;11.75;;;19.00;99.90;;;;;;5094826;28;20017;-79
2022/10/20 08:21:15;;;;;;;24.63;10.90;;;19.00;99.90;;;;;;5094962;28;20510;-78
2022/10/20 08:23:42;;;;;;;19.38;11.05;;;19.10;99.90;;;;;;5095172;28;20022;-79
2022/10/20 08:26:08;;;;;;;19.05;10.68;;;19.20;99.90;;;;;;5095126;28;20043;-79
2022/10/20 08:28:34;;;;;;;21.77;11.60;;;19.20;99.90;;;;;;5094893;28;20021;-79
2022/10/20 08:31:05;;;;;;;20.98;11.90;;;19.20;99.90;;;;;;5098094;28;20069;-79
2022/10/20 08:33:31;;;;;;;18.60;9.82;;;19.50;99.90;;;;;;5114903;28;20111;-79
2022/10/20 08:36:04;;;;;;;16.40;9.25;;;19.60;99.90;;;;;;5114997;28;20043;-79
2022/10/20 08:38:30;;;;;;;18.20;10.20;;;19.80;99.90;;;;;;5115019;28;20089;-78
2022/10/20 08:40:58;;;;;;;17.70;9.90;;;19.70;99.90;;;;;;5115160;28;20028;-79
2022/10/20 08:43:24;;;;;;;18.58;9.32;;;19.80;99.90;;;;;;5115389;28;20024;-79
2022/10/20 08:45:50;;;;;;;19.77;10.10;;;20.10;99.90;;;;;;5097189;28;20031;-79
2022/10/20 08:48:22;;;;;;;24.13;10.32;;;20.10;99.90;;;;;;5114593;28;20498;-79
2022/10/20 08:50:50;;;;;;;18.05;9.68;;;20.20;99.90;;;;;;5114831;28;20523;-79
2022/10/20 08:53:18;;;;;;;19.95;9.40;;;20.50;99.90;;;;;;5114801;28;20517;-79
2022/10/20 08:55:44;;;;;;;22.92;10.13;;;20.80;99.90;;;;;;5114891;28;20063;-79
2022/10/20 08:58:20;;;;;;;15.07;9.40;;;20.90;99.90;;;;;;5115113;28;20016;-79
2022/10/20 09:00:49;;;;;;;22.45;9.75;;;21.10;99.90;;;;;;5114719;28;20023;-79
2022/10/20 09:03:26;;;;;;;19.08;9.50;;;20.80;99.90;;;;;;5107186;28;20020;-79
2022/10/20 09:06:13;;;;;;;22.23;9.25;;;20.80;99.90;;;;;;5094233;28;20034;-79
2022/10/20 09:08:40;;;;;;;15.27;9.02;;;20.80;99.90;;;;;;5093911;28;20032;-79
2022/10/20 09:11:12;;;;;;;17.48;9.45;;;21.30;99.90;;;;;;5075688;28;20040;-79
2022/10/20 09:13:38;;;;;;;15.00;9.50;;;21.90;99.90;;;;;;5094052;28;20496;-79
2022/10/20 09:16:09;;;;;;;20.73;8.90;;;22.20;99.90;;;;;;5093813;28;20043;-79
2022/10/20 09:18:35;;;;;;;16.33;8.45;;;21.90;99.90;;;;;;5093804;28;20028;-79
2022/10/20 09:21:12;;;;;;;14.70;8.48;;;22.30;99.90;;;;;;5093891;28;20034;-79
2022/10/20 09:23:41;;;;;;;18.25;9.18;;;22.30;99.90;;;;;;5094123;28;20020;-79
2022/10/20 09:26:21;;;;;;;19.10;8.70;;;22.30;99.90;;;;;;5093235;28;20088;-80
2022/10/20 09:28:49;;;;;;;14.77;8.40;;;22.60;99.90;;;;;;5093776;28;20028;-79
2022/10/20 09:31:42;;;;;;;16.67;8.95;;;22.70;99.90;;;;;;5098597;28;20103;-79
2022/10/20 09:34:32;;;;;;;16.73;9.05;;;22.00;99.90;;;;;;5113314;28;20079;-79
2022/10/20 09:37:07;;;;;;;16.05;8.55;;;21.50;99.90;;;;;;5113901;28;20032;-79
2022/10/20 09:39:45;;;;;;;17.80;8.85;;;21.10;99.90;;;;;;5113783;28;20019;-79
2022/10/20 09:42:14;;;;;;;22.15;9.15;;;21.10;99.90;;;;;;5114234;28;20103;-79
2022/10/20 09:44:48;;;;;;;16.23;8.95;;;21.30;99.90;;;;;;5113906;28;20544;-79
2022/10/20 09:47:15;;;;;;;15.77;8.98;;;21.40;99.90;;;;;;5113211;28;20028;-79
2022/10/20 09:49:43;;;;;;;13.70;8.43;;;21.60;99.90;;;;;;5113561;28;20032;-79
2022/10/20 09:52:17;;;;;;;15.50;9.40;;;21.60;99.90;;;;;;5113898;28;20078;-79
2022/10/20 09:54:46;;;;;;;19.77;9.43;;;21.40;99.90;;;;;;5113481;28;20475;-79
2022/10/20 09:57:17;;;;;;;14.63;8.52;;;21.30;99.90;;;;;;5113688;28;20069;-79
2022/10/20 09:59:48;;;;;;;17.45;8.27;;;21.30;99.90;;;;;;5113147;28;20020;-79
2022/10/20 10:02:14;;;;;;;13.68;8.30;;;21.10;99.90;;;;;;5113440;28;20031;-79
2022/10/20 10:04:45;;;;;;;15.35;8.82;;;21.10;99.90;;;;;;5094651;28;20031;-80
2022/10/20 10:07:26;;;;;;;18.70;9.38;;;21.10;99.90;;;;;;5092925;28;20471;-79
2022/10/20 10:10:00;;;;;;;14.38;8.85;;;21.10;99.90;;;;;;5093023;28;20032;-79
2022/10/20 10:12:28;;;;;;;15.05;8.73;;;21.10;99.90;;;;;;5093023;28;20055;-79
2022/10/20 10:15:03;;;;;;;17.88;9.40;;;21.10;99.90;;;;;;5092431;28;20400;-79
2022/10/20 10:17:40;;;;;;;17.67;8.75;;;21.00;99.90;;;;;;5092906;28;20463;-79
2022/10/20 10:20:34;;;;;;;17.90;8.35;;;20.90;99.90;;;;;;5092771;28;20498;-79
2022/10/20 10:23:27;;;;;;;15.73;7.35;;;20.70;99.90;;;;;;5092695;28;20121;-78
2022/10/20 10:25:53;;;;;;;17.88;12.90;;;20.80;99.90;;;;;;5089361;28;20126;-79
2022/10/20 10:28:37;;;;;;;16.85;8.35;;;20.90;99.90;;;;;;5092853;28;20444;-79
2022/10/20 10:31:18;;;;;;;22.98;8.30;;;20.90;99.90;;;;;;5096172;28;20076;-79
2022/10/20 10:33:44;;;;;;;12.65;8.68;;;20.90;99.90;;;;;;5112921;28;20020;-79
2022/10/20 10:36:24;;;;;;;17.10;10.02;;;21.00;99.90;;;;;;5112726;28;20035;-79
2022/10/20 10:38:49;;;;;;;16.58;8.23;;;21.10;99.90;;;;;;5112644;28;20042;-79
2022/10/20 10:41:36;;;;;;;13.38;8.10;;;21.10;99.90;;;;;;5112753;28;20027;-79
2022/10/20 10:44:33;;;;;;;15.77;7.90;;;21.10;99.90;;;;;;5112606;28;20023;-79
2022/10/20 10:47:05;;;;;;;15.88;8.60;;;21.10;99.90;;;;;;5112407;28;20016;-79
2022/10/20 10:50:08;;;;;;;16.23;7.82;;;21.10;99.90;;;;;;5112939;28;20373;-80
2022/10/20 10:52:57;;;;;;;13.55;7.85;;;21.00;99.90;;;;;;5112708;28;20008;-79
2022/10/20 10:55:47;;;;;;;15.23;8.02;;;20.90;99.90;;;;;;5112861;28;20564;-79
2022/10/20 10:58:38;;;;;;;15.25;7.78;;;21.10;99.90;;;;;;5112308;28;20028;-79
2022/10/20 11:01:42;;;;;;;12.75;8.15;;;21.10;99.90;;;;;;5112548;28;20026;-79
2022/10/20 11:04:45;;;;;;;16.77;8.10;;;21.10;99.90;;;;;;5098067;28;20036;-79
2022/10/20 11:07:38;;;;;;;13.48;7.72;;;21.20;99.90;;;;;;5092038;28;20295;-79
2022/10/20 11:10:42;;;;;;;17.20;8.45;;;21.30;99.90;;;;;;5074065;28;20066;-79
2022/10/20 11:13:31;;;;;;;15.18;8.25;;;21.40;99.90;;;;;;5091734;28;20105;-79
2022/10/20 11:16:23;;;;;;;15.77;8.63;;;21.40;99.90;;;;;;5091871;28;20581;-79
2022/10/20 11:18:57;;;;;;;16.92;8.82;;;21.70;99.90;;;;;;5092208;28;20137;-79
2022/10/20 11:21:38;;;;;;;12.18;8.02;;;21.10;99.90;;;;;;5092006;28;20060;-79
2022/10/20 11:24:42;;;;;;;17.48;8.18;;;21.40;99.90;;;;;;5092487;28;20035;-79
2022/10/20 11:27:12;;;;;;;13.95;8.85;;;21.40;99.90;;;;;;5091167;28;20036;-80
2022/10/20 11:30:03;;;;;;;14.23;8.57;;;21.40;99.90;;;;;;5074434;28;20115;-79
2022/10/20 11:32:29;;;;;;;14.45;8.32;;;21.60;99.90;;;;;;5107579;28;20100;-79
2022/10/20 11:35:32;;;;;;;13.93;8.75;;;21.60;99.90;;;;;;5112384;28;20492;-79
2022/10/20 11:38:12;;;;;;;14.95;8.15;;;21.40;99.90;;;;;;5112532;28;20106;-79
2022/10/20 11:40:42;;;;;;;13.85;8.70;;;21.30;99.90;;;;;;5112263;28;20024;-79
2022/10/20 11:43:26;;;;;;;14.15;8.15;;;21.40;99.90;;;;;;5111930;28;20080;-79
2022/10/20 11:46:04;;;;;;;11.77;8.50;;;21.40;99.90;;;;;;5112107;28;20379;-79
2022/10/20 11:48:53;;;;;;;14.48;8.20;;;21.30;99.90;;;;;;5112624;28;20036;-79
2022/10/20 11:51:32;;;;;;;12.57;7.88;;;21.30;99.90;;;;;;5115375;28;20089;-79
2022/10/20 11:54:10;;;;;;;12.18;7.38;;;21.10;99.90;;;;;;5115937;28;20544;-78
2022/10/20 11:56:44;;;;;;;16.27;7.47;;;21.00;99.90;;;;;;5115811;28;20046;-79
2022/10/20 11:59:39;;;;;;;12.63;7.25;;;21.10;99.90;;;;;;5115787;28;20019;-79
2022/10/20 12:02:29;;;;;;;10.45;7.03;;;21.00;99.90;;;;;;5116144;28;20131;-79
2022/10/20 12:05:32;;;;;;;11.43;7.25;;;20.90;99.90;;;;;;5115573;28;20036;-80
2022/10/20 12:08:06;;;;;;;14.25;7.35;;;21.00;99.90;;;;;;5116033;28;20028;-79
2022/10/20 12:10:57;;;;;;;13.45;7.57;;;21.10;99.90;;;;;;5115108;28;20069;-79
2022/10/20 12:13:53;;;;;;;12.45;7.65;;;21.10;99.90;;;;;;5115594;28;20024;-79
2022/10/20 12:16:52;;;;;;;14.15;7.65;;;21.20;99.90;;;;;;5115920;28;20377;-79
2022/10/20 12:19:33;;;;;;;12.77;6.90;;;21.30;99.90;;;;;;5115524;28;20035;-79
2022/10/20 12:22:13;;;;;;;12.75;7.05;;;21.40;99.90;;;;;;5115600;28;20103;-79
2022/10/20 12:24:48;;;;;;;11.13;7.03;;;21.40;99.90;;;;;;5115059;28;20023;-79
2022/10/20 12:27:26;;;;;;;12.73;8.30;;;21.30;99.90;;;;;;5115285;28;20088;-80
2022/10/20 12:30:15;;;;;;;11.40;7.60;;;21.40;99.90;;;;;;5115274;28;20027;-79
2022/10/20 12:33:07;;;;;;;16.00;8.25;;;21.40;99.90;;;;;;5115223;28;20024;-79
2022/10/20 12:36:17;;;;;;;14.13;7.70;;;21.50;99.90;;;;;;5115067;28;20404;-79
2022/10/20 12:38:52;;;;;;;12.50;7.10;;;21.60;99.90;;;;;;5012561;28;20040;-79
2022/10/20 12:41:33;;;;;;;13.38;8.25;;;21.70;99.90;;;;;;5012681;28;20518;-79
2022/10/20 12:44:12;;;;;;;23.35;8.43;;;21.90;99.90;;;;;;5012410;28;20518;-79
2022/10/20 12:46:42;;;;;;;13.55;7.50;;;21.90;99.90;;;;;;5012339;28;20030;-79
2022/10/20 12:49:19;;;;;;;9.38;7.20;;;21.90;99.90;;;;;;5012725;28;20037;-79
2022/10/20 12:51:51;;;;;;;10.43;7.68;;;21.80;99.90;;;;;;5012445;28;20044;-80
2022/10/20 12:54:23;;;;;;;12.13;8.05;;;21.90;99.90;;;;;;5011685;28;20605;-79
2022/10/20 12:56:50;;;;;;;16.75;8.13;;;21.90;99.90;;;;;;5012609;28;20509;-79